sensor_id;sensor_type;location;lat;lon;timestamp;P1;durP1;ratioP1;P2;durP2;ratioP2
23310;SDS011;11828;51.508;18.118;2023-09-30T00:01:10;109.78;;;76.07;;
23310;SDS011;11828;51.508;18.118;2023-09-30T00:03:37;24.25;;;19.27;;
23310;SDS011;11828;51.508;18.118;2023-09-30T00:06:03;43.75;;;39.53;;
23310;SDS011;11828;51.508;18.118;2023-09-30T00:08:29;27.10;;;19.60;;
23310;SDS011;11828;51.508;18.118;2023-09-30T00:10:56;28.65;;;22.30;;
23310;SDS011;11828;51.508;18.118;2023-09-30T00:13:22;25.40;;;20.75;;
23310;SDS011;11828;51.508;18.118;2023-09-30T00:15:49;33.97;;;30.48;;
23310;SDS011;11828;51.508;18.118;2023-09-30T00:18:15;32.65;;;22.85;;
23310;SDS011;11828;51.508;18.118;2023-09-30T00:20:41;30.60;;;25.45;;
23310;SDS011;11828;51.508;18.118;2023-09-30T00:23:08;34.92;;;30.65;;
23310;SDS011;11828;51.508;18.118;2023-09-30T00:25:34;36.70;;;33.13;;
23310;SDS011;11828;51.508;18.118;2023-09-30T00:28:00;47.13;;;42.35;;
23310;SDS011;11828;51.508;18.118;2023-09-30T00:30:26;92.65;;;69.57;;
23310;SDS011;11828;51.508;18.118;2023-09-30T00:32:52;42.17;;;38.25;;
23310;SDS011;11828;51.508;18.118;2023-09-30T00:35:18;54.50;;;49.30;;
23310;SDS011;11828;51.508;18.118;2023-09-30T00:37:44;44.85;;;40.40;;
23310;SDS011;11828;51.508;18.118;2023-09-30T00:40:10;27.48;;;20.35;;
23310;SDS011;11828;51.508;18.118;2023-09-30T00:42:37;20.50;;;14.18;;
23310;SDS011;11828;51.508;18.118;2023-09-30T00:45:04;28.48;;;16.02;;
23310;SDS011;11828;51.508;18.118;2023-09-30T00:47:32;26.48;;;17.95;;
23310;SDS011;11828;51.508;18.118;2023-09-30T00:49:59;26.48;;;20.45;;
23310;SDS011;11828;51.508;18.118;2023-09-30T00:52:26;45.75;;;41.30;;
23310;SDS011;11828;51.508;18.118;2023-09-30T00:54:52;32.10;;;25.80;;
23310;SDS011;11828;51.508;18.118;2023-09-30T00:57:20;36.83;;;33.40;;
23310;SDS011;11828;51.508;18.118;2023-09-30T00:59:47;34.53;;;31.05;;
23310;SDS011;11828;51.508;18.118;2023-09-30T01:02:16;37.00;;;29.25;;
23310;SDS011;11828;51.508;18.118;2023-09-30T01:04:43;32.88;;;25.52;;
23310;SDS011;11828;51.508;18.118;2023-09-30T01:07:10;82.30;;;67.05;;
23310;SDS011;11828;51.508;18.118;2023-09-30T01:09:36;54.92;;;48.78;;
23310;SDS011;11828;51.508;18.118;2023-09-30T01:12:04;34.45;;;27.88;;
23310;SDS011;11828;51.508;18.118;2023-09-30T01:14:31;30.75;;;27.38;;
23310;SDS011;11828;51.508;18.118;2023-09-30T01:17:04;35.50;;;31.45;;
23310;SDS011;11828;51.508;18.118;2023-09-30T01:19:34;28.00;;;25.02;;
23310;SDS011;11828;51.508;18.118;2023-09-30T01:22:00;25.13;;;16.92;;
23310;SDS011;11828;51.508;18.118;2023-09-30T01:24:31;59.95;;;53.80;;
23310;SDS011;11828;51.508;18.118;2023-09-30T01:27:07;33.75;;;23.98;;
23310;SDS011;11828;51.508;18.118;2023-09-30T01:29:34;23.33;;;16.27;;
23310;SDS011;11828;51.508;18.118;2023-09-30T01:32:04;22.95;;;13.13;;
23310;SDS011;11828;51.508;18.118;2023-09-30T01:34:34;23.52;;;17.80;;
23310;SDS011;11828;51.508;18.118;2023-09-30T01:37:01;53.90;;;48.30;;
23310;SDS011;11828;51.508;18.118;2023-09-30T01:39:27;28.33;;;20.35;;
23310;SDS011;11828;51.508;18.118;2023-09-30T01:41:55;20.98;;;14.85;;
23310;SDS011;11828;51.508;18.118;2023-09-30T01:44:21;33.90;;;30.63;;
23310;SDS011;11828;51.508;18.118;2023-09-30T01:46:47;21.85;;;18.40;;
23310;SDS011;11828;51.508;18.118;2023-09-30T01:49:13;25.33;;;19.58;;
23310;SDS011;11828;51.508;18.118;2023-09-30T01:51:39;56.47;;;49.63;;
23310;SDS011;11828;51.508;18.118;2023-09-30T01:54:05;45.28;;;40.55;;
23310;SDS011;11828;51.508;18.118;2023-09-30T01:56:32;50.60;;;44.10;;
23310;SDS011;11828;51.508;18.118;2023-09-30T01:58:59;23.23;;;14.27;;
23310;SDS011;11828;51.508;18.118;2023-09-30T02:01:26;24.60;;;15.23;;
23310;SDS011;11828;51.508;18.118;2023-09-30T02:03:52;17.65;;;13.02;;
23310;SDS011;11828;51.508;18.118;2023-09-30T02:06:18;81.80;;;64.95;;
23310;SDS011;11828;51.508;18.118;2023-09-30T02:08:44;34.53;;;31.13;;
23310;SDS011;11828;51.508;18.118;2023-09-30T02:11:11;25.60;;;22.88;;
23310;SDS011;11828;51.508;18.118;2023-09-30T02:13:40;27.05;;;24.08;;
23310;SDS011;11828;51.508;18.118;2023-09-30T02:16:11;28.67;;;14.75;;
23310;SDS011;11828;51.508;18.118;2023-09-30T02:18:38;32.03;;;22.38;;
23310;SDS011;11828;51.508;18.118;2023-09-30T02:21:08;24.80;;;14.32;;
23310;SDS011;11828;51.508;18.118;2023-09-30T02:23:34;79.50;;;66.10;;
23310;SDS011;11828;51.508;18.118;2023-09-30T02:26:02;21.95;;;13.52;;
23310;SDS011;11828;51.508;18.118;2023-09-30T02:28:28;21.98;;;12.85;;
23310;SDS011;11828;51.508;18.118;2023-09-30T02:30:59;21.67;;;11.70;;
23310;SDS011;11828;51.508;18.118;2023-09-30T02:33:28;26.33;;;17.52;;
23310;SDS011;11828;51.508;18.118;2023-09-30T02:35:55;19.15;;;12.98;;
23310;SDS011;11828;51.508;18.118;2023-09-30T02:38:21;25.35;;;13.10;;
23310;SDS011;11828;51.508;18.118;2023-09-30T02:40:48;31.10;;;22.00;;
23310;SDS011;11828;51.508;18.118;2023-09-30T02:43:16;23.98;;;20.95;;
23310;SDS011;11828;51.508;18.118;2023-09-30T02:45:43;24.85;;;19.52;;
23310;SDS011;11828;51.508;18.118;2023-09-30T02:48:09;20.63;;;16.65;;
23310;SDS011;11828;51.508;18.118;2023-09-30T02:50:35;30.58;;;24.55;;
23310;SDS011;11828;51.508;18.118;2023-09-30T02:53:01;25.27;;;20.63;;
23310;SDS011;11828;51.508;18.118;2023-09-30T02:55:28;20.30;;;14.50;;
23310;SDS011;11828;51.508;18.118;2023-09-30T02:57:54;23.50;;;17.80;;
23310;SDS011;11828;51.508;18.118;2023-09-30T03:00:21;22.85;;;13.93;;
23310;SDS011;11828;51.508;18.118;2023-09-30T03:02:54;25.38;;;18.67;;
23310;SDS011;11828;51.508;18.118;2023-09-30T03:05:21;39.30;;;15.30;;
23310;SDS011;11828;51.508;18.118;2023-09-30T03:07:48;16.50;;;14.27;;
23310;SDS011;11828;51.508;18.118;2023-09-30T03:10:18;27.05;;;19.40;;
23310;SDS011;11828;51.508;18.118;2023-09-30T03:13:07;20.45;;;13.63;;
23310;SDS011;11828;51.508;18.118;2023-09-30T03:15:35;21.00;;;15.73;;
23310;SDS011;11828;51.508;18.118;2023-09-30T03:18:01;23.85;;;20.05;;
23310;SDS011;11828;51.508;18.118;2023-09-30T03:20:29;19.83;;;11.68;;
23310;SDS011;11828;51.508;18.118;2023-09-30T03:22:56;21.95;;;19.50;;
23310;SDS011;11828;51.508;18.118;2023-09-30T03:25:23;21.75;;;18.08;;
23310;SDS011;11828;51.508;18.118;2023-09-30T03:27:49;27.65;;;18.42;;
23310;SDS011;11828;51.508;18.118;2023-09-30T03:30:16;14.63;;;9.60;;
23310;SDS011;11828;51.508;18.118;2023-09-30T03:32:43;20.80;;;11.50;;
23310;SDS011;11828;51.508;18.118;2023-09-30T03:35:10;21.90;;;13.38;;
23310;SDS011;11828;51.508;18.118;2023-09-30T03:37:42;17.30;;;9.85;;
23310;SDS011;11828;51.508;18.118;2023-09-30T03:40:10;21.58;;;9.65;;
23310;SDS011;11828;51.508;18.118;2023-09-30T03:42:39;21.60;;;17.17;;
23310;SDS011;11828;51.508;18.118;2023-09-30T03:45:08;26.77;;;21.40;;
23310;SDS011;11828;51.508;18.118;2023-09-30T03:47:35;19.58;;;12.13;;
23310;SDS011;11828;51.508;18.118;2023-09-30T03:50:03;24.00;;;17.35;;
23310;SDS011;11828;51.508;18.118;2023-09-30T03:52:33;19.98;;;10.38;;
23310;SDS011;11828;51.508;18.118;2023-09-30T03:55:00;24.35;;;10.23;;
23310;SDS011;11828;51.508;18.118;2023-09-30T03:57:31;24.30;;;11.55;;
23310;SDS011;11828;51.508;18.118;2023-09-30T03:59:59;28.70;;;12.10;;
23310;SDS011;11828;51.508;18.118;2023-09-30T04:02:26;26.30;;;12.15;;
23310;SDS011;11828;51.508;18.118;2023-09-30T04:04:53;23.88;;;14.10;;
23310;SDS011;11828;51.508;18.118;2023-09-30T04:07:21;21.60;;;10.35;;
23310;SDS011;11828;51.508;18.118;2023-09-30T04:09:48;26.67;;;10.13;;
23310;SDS011;11828;51.508;18.118;2023-09-30T04:12:14;26.45;;;10.90;;
23310;SDS011;11828;51.508;18.118;2023-09-30T04:14:40;19.17;;;10.52;;
23310;SDS011;11828;51.508;18.118;2023-09-30T04:17:06;26.17;;;17.92;;
23310;SDS011;11828;51.508;18.118;2023-09-30T04:19:34;33.45;;;15.73;;
23310;SDS011;11828;51.508;18.118;2023-09-30T04:22:00;32.35;;;12.80;;
23310;SDS011;11828;51.508;18.118;2023-09-30T04:24:26;28.75;;;16.52;;
23310;SDS011;11828;51.508;18.118;2023-09-30T04:26:54;18.17;;;9.55;;
23310;SDS011;11828;51.508;18.118;2023-09-30T04:29:27;26.95;;;10.18;;
23310;SDS011;11828;51.508;18.118;2023-09-30T04:31:54;19.00;;;9.48;;
23310;SDS011;11828;51.508;18.118;2023-09-30T04:34:22;22.35;;;18.83;;
23310;SDS011;11828;51.508;18.118;2023-09-30T04:36:48;31.02;;;16.23;;
23310;SDS011;11828;51.508;18.118;2023-09-30T04:39:14;20.65;;;10.50;;
23310;SDS011;11828;51.508;18.118;2023-09-30T04:41:41;43.25;;;14.32;;
23310;SDS011;11828;51.508;18.118;2023-09-30T04:44:07;23.58;;;13.70;;
23310;SDS011;11828;51.508;18.118;2023-09-30T04:46:36;14.73;;;10.95;;
23310;SDS011;11828;51.508;18.118;2023-09-30T04:49:09;36.38;;;27.92;;
23310;SDS011;11828;51.508;18.118;2023-09-30T04:51:35;24.05;;;13.32;;
23310;SDS011;11828;51.508;18.118;2023-09-30T04:54:01;31.85;;;14.80;;
23310;SDS011;11828;51.508;18.118;2023-09-30T04:56:28;34.25;;;24.02;;
23310;SDS011;11828;51.508;18.118;2023-09-30T04:58:55;35.97;;;18.65;;
23310;SDS011;11828;51.508;18.118;2023-09-30T05:01:21;37.28;;;20.67;;
23310;SDS011;11828;51.508;18.118;2023-09-30T05:03:47;45.63;;;19.48;;
23310;SDS011;11828;51.508;18.118;2023-09-30T05:06:14;59.40;;;49.47;;
23310;SDS011;11828;51.508;18.118;2023-09-30T05:08:41;35.67;;;21.98;;
23310;SDS011;11828;51.508;18.118;2023-09-30T05:11:07;33.88;;;30.33;;
23310;SDS011;11828;51.508;18.118;2023-09-30T05:13:33;25.80;;;19.58;;
23310;SDS011;11828;51.508;18.118;2023-09-30T05:15:59;35.70;;;27.25;;
23310;SDS011;11828;51.508;18.118;2023-09-30T05:18:26;23.58;;;16.92;;
23310;SDS011;11828;51.508;18.118;2023-09-30T05:20:52;24.08;;;17.65;;
23310;SDS011;11828;51.508;18.118;2023-09-30T05:23:18;23.88;;;15.75;;
23310;SDS011;11828;51.508;18.118;2023-09-30T05:25:44;21.33;;;11.57;;
23310;SDS011;11828;51.508;18.118;2023-09-30T05:28:11;20.02;;;13.10;;
23310;SDS011;11828;51.508;18.118;2023-09-30T05:30:38;18.15;;;13.65;;
23310;SDS011;11828;51.508;18.118;2023-09-30T05:33:06;18.67;;;11.90;;
23310;SDS011;11828;51.508;18.118;2023-09-30T05:35:32;22.23;;;13.35;;
23310;SDS011;11828;51.508;18.118;2023-09-30T05:37:59;16.70;;;10.25;;
23310;SDS011;11828;51.508;18.118;2023-09-30T05:40:24;16.33;;;9.68;;
23310;SDS011;11828;51.508;18.118;2023-09-30T05:42:55;19.48;;;10.38;;
23310;SDS011;11828;51.508;18.118;2023-09-30T05:45:26;21.50;;;11.32;;
23310;SDS011;11828;51.508;18.118;2023-09-30T05:47:54;18.95;;;13.38;;
23310;SDS011;11828;51.508;18.118;2023-09-30T05:50:22;20.15;;;10.35;;
23310;SDS011;11828;51.508;18.118;2023-09-30T05:52:55;17.52;;;9.63;;
23310;SDS011;11828;51.508;18.118;2023-09-30T05:55:21;23.40;;;10.07;;
23310;SDS011;11828;51.508;18.118;2023-09-30T05:57:50;22.85;;;9.25;;
23310;SDS011;11828;51.508;18.118;2023-09-30T06:00:18;17.33;;;8.95;;
23310;SDS011;11828;51.508;18.118;2023-09-30T06:02:50;24.35;;;9.75;;
23310;SDS011;11828;51.508;18.118;2023-09-30T06:05:17;17.15;;;8.57;;
23310;SDS011;11828;51.508;18.118;2023-09-30T06:07:48;16.73;;;8.32;;
23310;SDS011;11828;51.508;18.118;2023-09-30T06:10:17;14.90;;;7.80;;
23310;SDS011;11828;51.508;18.118;2023-09-30T06:12:46;18.25;;;8.77;;
23310;SDS011;11828;51.508;18.118;2023-09-30T06:15:15;18.67;;;9.40;;
23310;SDS011;11828;51.508;18.118;2023-09-30T06:17:49;14.52;;;7.90;;
23310;SDS011;11828;51.508;18.118;2023-09-30T06:20:17;23.60;;;9.95;;
23310;SDS011;11828;51.508;18.118;2023-09-30T06:22:45;23.23;;;9.10;;
23310;SDS011;11828;51.508;18.118;2023-09-30T06:25:12;18.40;;;8.20;;
23310;SDS011;11828;51.508;18.118;2023-09-30T06:27:42;23.80;;;10.65;;
23310;SDS011;11828;51.508;18.118;2023-09-30T06:30:12;18.98;;;8.70;;
23310;SDS011;11828;51.508;18.118;2023-09-30T06:32:41;23.75;;;9.00;;
23310;SDS011;11828;51.508;18.118;2023-09-30T06:35:08;22.08;;;7.97;;
23310;SDS011;11828;51.508;18.118;2023-09-30T06:37:39;16.02;;;7.10;;
23310;SDS011;11828;51.508;18.118;2023-09-30T06:40:06;16.15;;;7.40;;
23310;SDS011;11828;51.508;18.118;2023-09-30T06:42:37;16.05;;;7.45;;
23310;SDS011;11828;51.508;18.118;2023-09-30T06:45:05;29.42;;;8.93;;
23310;SDS011;11828;51.508;18.118;2023-09-30T06:47:34;23.13;;;8.02;;
23310;SDS011;11828;51.508;18.118;2023-09-30T06:50:04;21.90;;;7.75;;
23310;SDS011;11828;51.508;18.118;2023-09-30T06:52:36;16.45;;;7.40;;
23310;SDS011;11828;51.508;18.118;2023-09-30T06:55:07;24.73;;;8.80;;
23310;SDS011;11828;51.508;18.118;2023-09-30T06:57:34;21.08;;;8.10;;
23310;SDS011;11828;51.508;18.118;2023-09-30T07:00:08;19.95;;;8.52;;
23310;SDS011;11828;51.508;18.118;2023-09-30T07:02:38;15.48;;;7.55;;
23310;SDS011;11828;51.508;18.118;2023-09-30T07:05:07;18.60;;;8.27;;
23310;SDS011;11828;51.508;18.118;2023-09-30T07:07:39;15.18;;;7.53;;
23310;SDS011;11828;51.508;18.118;2023-09-30T07:10:09;17.75;;;8.05;;
23310;SDS011;11828;51.508;18.118;2023-09-30T07:12:36;19.77;;;8.50;;
23310;SDS011;11828;51.508;18.118;2023-09-30T07:15:02;16.25;;;8.38;;
23310;SDS011;11828;51.508;18.118;2023-09-30T07:17:31;18.85;;;8.35;;
23310;SDS011;11828;51.508;18.118;2023-09-30T07:19:59;18.52;;;16.13;;
23310;SDS011;11828;51.508;18.118;2023-09-30T07:22:25;24.02;;;20.92;;
23310;SDS011;11828;51.508;18.118;2023-09-30T07:24:51;30.40;;;27.48;;
23310;SDS011;11828;51.508;18.118;2023-09-30T07:27:25;43.05;;;39.25;;
23310;SDS011;11828;51.508;18.118;2023-09-30T07:29:51;24.10;;;19.15;;
23310;SDS011;11828;51.508;18.118;2023-09-30T07:32:17;56.50;;;50.47;;
23310;SDS011;11828;51.508;18.118;2023-09-30T07:34:43;52.90;;;47.80;;
23310;SDS011;11828;51.508;18.118;2023-09-30T07:37:10;24.67;;;22.42;;
23310;SDS011;11828;51.508;18.118;2023-09-30T07:39:39;55.10;;;49.45;;
23310;SDS011;11828;51.508;18.118;2023-09-30T07:42:08;67.35;;;55.88;;
23310;SDS011;11828;51.508;18.118;2023-09-30T07:44:34;69.60;;;58.65;;
23310;SDS011;11828;51.508;18.118;2023-09-30T07:47:04;58.67;;;52.30;;
23310;SDS011;11828;51.508;18.118;2023-09-30T07:49:32;66.53;;;56.42;;
23310;SDS011;11828;51.508;18.118;2023-09-30T07:51:58;60.63;;;53.72;;
23310;SDS011;11828;51.508;18.118;2023-09-30T07:54:24;85.65;;;64.15;;
23310;SDS011;11828;51.508;18.118;2023-09-30T07:56:51;56.38;;;50.47;;
23310;SDS011;11828;51.508;18.118;2023-09-30T07:59:17;81.05;;;59.75;;
23310;SDS011;11828;51.508;18.118;2023-09-30T08:01:44;63.45;;;55.42;;
23310;SDS011;11828;51.508;18.118;2023-09-30T08:04:12;58.05;;;51.67;;
23310;SDS011;11828;51.508;18.118;2023-09-30T08:06:39;61.95;;;55.13;;
23310;SDS011;11828;51.508;18.118;2023-09-30T08:09:05;66.10;;;55.47;;
23310;SDS011;11828;51.508;18.118;2023-09-30T08:11:37;54.50;;;48.85;;
23310;SDS011;11828;51.508;18.118;2023-09-30T08:14:03;63.55;;;55.95;;
23310;SDS011;11828;51.508;18.118;2023-09-30T08:16:37;45.30;;;40.70;;
23310;SDS011;11828;51.508;18.118;2023-09-30T08:19:03;44.42;;;40.58;;
23310;SDS011;11828;51.508;18.118;2023-09-30T08:21:30;29.67;;;27.17;;
23310;SDS011;11828;51.508;18.118;2023-09-30T08:23:57;46.15;;;41.90;;
23310;SDS011;11828;51.508;18.118;2023-09-30T08:26:23;41.22;;;37.67;;
23310;SDS011;11828;51.508;18.118;2023-09-30T08:28:49;29.40;;;26.75;;
23310;SDS011;11828;51.508;18.118;2023-09-30T08:31:15;39.67;;;36.28;;
23310;SDS011;11828;51.508;18.118;2023-09-30T08:33:42;32.78;;;29.83;;
23310;SDS011;11828;51.508;18.118;2023-09-30T08:36:11;19.75;;;17.40;;
23310;SDS011;11828;51.508;18.118;2023-09-30T08:38:37;25.35;;;22.20;;
23310;SDS011;11828;51.508;18.118;2023-09-30T08:41:06;15.02;;;11.63;;
23310;SDS011;11828;51.508;18.118;2023-09-30T08:43:38;19.67;;;16.23;;
23310;SDS011;11828;51.508;18.118;2023-09-30T08:46:06;121.07;;;72.32;;
23310;SDS011;11828;51.508;18.118;2023-09-30T08:48:33;88.35;;;63.35;;
23310;SDS011;11828;51.508;18.118;2023-09-30T08:51:01;130.65;;;75.40;;
23310;SDS011;11828;51.508;18.118;2023-09-30T08:53:31;119.10;;;72.55;;
23310;SDS011;11828;51.508;18.118;2023-09-30T08:55:58;96.10;;;66.10;;
23310;SDS011;11828;51.508;18.118;2023-09-30T08:58:28;67.60;;;56.03;;
23310;SDS011;11828;51.508;18.118;2023-09-30T09:00:55;110.07;;;69.38;;
23310;SDS011;11828;51.508;18.118;2023-09-30T09:03:21;124.13;;;73.40;;
23310;SDS011;11828;51.508;18.118;2023-09-30T09:05:57;135.00;;;75.57;;
23310;SDS011;11828;51.508;18.118;2023-09-30T09:08:25;98.95;;;67.28;;
23310;SDS011;11828;51.508;18.118;2023-09-30T09:10:55;168.80;;;81.00;;
23310;SDS011;11828;51.508;18.118;2023-09-30T09:13:24;94.53;;;65.63;;
23310;SDS011;11828;51.508;18.118;2023-09-30T09:16:10;98.00;;;66.47;;
23310;SDS011;11828;51.508;18.118;2023-09-30T09:18:36;118.95;;;72.22;;
23310;SDS011;11828;51.508;18.118;2023-09-30T09:23:39;112.63;;;70.00;;
23310;SDS011;11828;51.508;18.118;2023-09-30T09:26:11;123.90;;;74.30;;
23310;SDS011;11828;51.508;18.118;2023-09-30T09:28:39;63.15;;;53.53;;
23310;SDS011;11828;51.508;18.118;2023-09-30T09:31:19;13.60;;;9.50;;
23310;SDS011;11828;51.508;18.118;2023-09-30T09:33:53;16.45;;;5.22;;
23310;SDS011;11828;51.508;18.118;2023-09-30T09:36:20;13.55;;;3.72;;
23310;SDS011;11828;51.508;18.118;2023-09-30T09:38:49;190.57;;;85.32;;
23310;SDS011;11828;51.508;18.118;2023-09-30T09:41:21;77.97;;;63.70;;
23310;SDS011;11828;51.508;18.118;2023-09-30T09:43:49;13.68;;;5.75;;
23310;SDS011;11828;51.508;18.118;2023-09-30T09:46:18;22.92;;;20.60;;
23310;SDS011;11828;51.508;18.118;2023-09-30T09:48:45;47.33;;;42.83;;
23310;SDS011;11828;51.508;18.118;2023-09-30T09:51:13;65.80;;;58.85;;
23310;SDS011;11828;51.508;18.118;2023-09-30T09:53:40;67.13;;;59.95;;
23310;SDS011;11828;51.508;18.118;2023-09-30T09:56:07;32.28;;;29.05;;
23310;SDS011;11828;51.508;18.118;2023-09-30T09:58:39;16.85;;;12.05;;
23310;SDS011;11828;51.508;18.118;2023-09-30T10:01:08;15.05;;;8.35;;
23310;SDS011;11828;51.508;18.118;2023-09-30T10:03:35;23.02;;;20.83;;
23310;SDS011;11828;51.508;18.118;2023-09-30T10:06:04;108.45;;;76.53;;
23310;SDS011;11828;51.508;18.118;2023-09-30T10:08:38;141.80;;;83.13;;
23310;SDS011;11828;51.508;18.118;2023-09-30T10:11:08;119.32;;;74.85;;
23310;SDS011;11828;51.508;18.118;2023-09-30T10:19:20;153.20;;;84.38;;
23310;SDS011;11828;51.508;18.118;2023-09-30T10:24:48;221.95;;;88.80;;
23310;SDS011;11828;51.508;18.118;2023-09-30T10:29:56;224.30;;;89.07;;
23310;SDS011;11828;51.508;18.118;2023-09-30T10:37:45;211.70;;;88.53;;
23310;SDS011;11828;51.508;18.118;2023-09-30T10:40:28;206.65;;;89.43;;
23310;SDS011;11828;51.508;18.118;2023-09-30T10:42:59;209.23;;;87.95;;
23310;SDS011;11828;51.508;18.118;2023-09-30T10:50:51;200.90;;;87.60;;
23310;SDS011;11828;51.508;18.118;2023-09-30T10:53:22;182.63;;;86.75;;
23310;SDS011;11828;51.508;18.118;2023-09-30T10:55:55;188.35;;;88.35;;
23310;SDS011;11828;51.508;18.118;2023-09-30T10:58:39;127.38;;;80.68;;
23310;SDS011;11828;51.508;18.118;2023-09-30T11:01:09;194.80;;;85.88;;
23310;SDS011;11828;51.508;18.118;2023-09-30T11:03:42;218.98;;;89.15;;
23310;SDS011;11828;51.508;18.118;2023-09-30T11:06:13;207.73;;;88.70;;
23310;SDS011;11828;51.508;18.118;2023-09-30T11:09:01;154.45;;;84.38;;
23310;SDS011;11828;51.508;18.118;2023-09-30T11:11:47;199.95;;;90.80;;
23310;SDS011;11828;51.508;18.118;2023-09-30T11:14:23;185.25;;;90.10;;
23310;SDS011;11828;51.508;18.118;2023-09-30T11:17:00;219.30;;;89.18;;
23310;SDS011;11828;51.508;18.118;2023-09-30T11:19:36;205.02;;;89.63;;
23310;SDS011;11828;51.508;18.118;2023-09-30T11:22:12;213.63;;;89.97;;
23310;SDS011;11828;51.508;18.118;2023-09-30T11:24:39;215.90;;;89.78;;
23310;SDS011;11828;51.508;18.118;2023-09-30T11:27:05;189.80;;;88.28;;
23310;SDS011;11828;51.508;18.118;2023-09-30T11:29:32;222.70;;;89.53;;
23310;SDS011;11828;51.508;18.118;2023-09-30T11:31:58;215.77;;;89.63;;
23310;SDS011;11828;51.508;18.118;2023-09-30T11:34:31;210.13;;;88.60;;
23310;SDS011;11828;51.508;18.118;2023-09-30T11:37:01;214.10;;;88.47;;
23310;SDS011;11828;51.508;18.118;2023-09-30T11:39:28;214.82;;;89.20;;
23310;SDS011;11828;51.508;18.118;2023-09-30T11:41:55;187.40;;;88.18;;
23310;SDS011;11828;51.508;18.118;2023-09-30T11:44:23;172.00;;;85.07;;
23310;SDS011;11828;51.508;18.118;2023-09-30T11:46:52;209.68;;;88.40;;
23310;SDS011;11828;51.508;18.118;2023-09-30T11:49:37;200.60;;;87.18;;
23310;SDS011;11828;51.508;18.118;2023-09-30T11:52:09;184.18;;;86.63;;
23310;SDS011;11828;51.508;18.118;2023-09-30T11:54:38;220.90;;;87.88;;
23310;SDS011;11828;51.508;18.118;2023-09-30T11:57:07;222.15;;;89.80;;
23310;SDS011;11828;51.508;18.118;2023-09-30T11:59:37;221.60;;;87.97;;
23310;SDS011;11828;51.508;18.118;2023-09-30T12:02:06;223.65;;;88.32;;
23310;SDS011;11828;51.508;18.118;2023-09-30T12:04:37;221.20;;;89.32;;
23310;SDS011;11828;51.508;18.118;2023-09-30T12:07:04;223.77;;;88.80;;
23310;SDS011;11828;51.508;18.118;2023-09-30T12:09:32;194.05;;;87.93;;
23310;SDS011;11828;51.508;18.118;2023-09-30T12:12:00;206.68;;;87.65;;
23310;SDS011;11828;51.508;18.118;2023-09-30T12:14:27;178.40;;;86.72;;
23310;SDS011;11828;51.508;18.118;2023-09-30T12:16:55;141.82;;;83.18;;
23310;SDS011;11828;51.508;18.118;2023-09-30T12:19:22;185.55;;;87.22;;
23310;SDS011;11828;51.508;18.118;2023-09-30T12:21:48;198.20;;;88.18;;
23310;SDS011;11828;51.508;18.118;2023-09-30T12:24:15;192.63;;;87.05;;
23310;SDS011;11828;51.508;18.118;2023-09-30T12:26:43;199.90;;;86.13;;
23310;SDS011;11828;51.508;18.118;2023-09-30T12:29:20;214.25;;;87.07;;
23310;SDS011;11828;51.508;18.118;2023-09-30T12:31:49;203.65;;;87.47;;
23310;SDS011;11828;51.508;18.118;2023-09-30T12:34:17;198.32;;;87.13;;
23310;SDS011;11828;51.508;18.118;2023-09-30T12:36:43;215.85;;;88.18;;
23310;SDS011;11828;51.508;18.118;2023-09-30T12:39:10;215.68;;;87.45;;
23310;SDS011;11828;51.508;18.118;2023-09-30T12:41:40;223.63;;;89.00;;
23310;SDS011;11828;51.508;18.118;2023-09-30T12:44:08;221.57;;;87.68;;
23310;SDS011;11828;51.508;18.118;2023-09-30T12:46:35;212.60;;;87.18;;
23310;SDS011;11828;51.508;18.118;2023-09-30T12:49:05;193.57;;;86.05;;
23310;SDS011;11828;51.508;18.118;2023-09-30T12:51:32;185.57;;;86.35;;
23310;SDS011;11828;51.508;18.118;2023-09-30T12:54:00;154.43;;;84.25;;
23310;SDS011;11828;51.508;18.118;2023-09-30T12:56:26;203.07;;;86.85;;
23310;SDS011;11828;51.508;18.118;2023-09-30T12:58:56;185.20;;;87.28;;
23310;SDS011;11828;51.508;18.118;2023-09-30T13:01:22;191.38;;;87.70;;
23310;SDS011;11828;51.508;18.118;2023-09-30T13:03:49;204.98;;;87.40;;
23310;SDS011;11828;51.508;18.118;2023-09-30T13:06:15;175.77;;;86.47;;
23310;SDS011;11828;51.508;18.118;2023-09-30T13:08:42;179.25;;;86.72;;
23310;SDS011;11828;51.508;18.118;2023-09-30T13:11:08;203.43;;;86.97;;
23310;SDS011;11828;51.508;18.118;2023-09-30T13:13:36;187.60;;;86.25;;
23310;SDS011;11828;51.508;18.118;2023-09-30T13:16:03;219.23;;;87.05;;
23310;SDS011;11828;51.508;18.118;2023-09-30T13:18:35;154.18;;;82.95;;
23310;SDS011;11828;51.508;18.118;2023-09-30T13:21:02;196.90;;;87.25;;
23310;SDS011;11828;51.508;18.118;2023-09-30T13:23:31;212.23;;;87.75;;
23310;SDS011;11828;51.508;18.118;2023-09-30T13:25:58;220.75;;;87.85;;
23310;SDS011;11828;51.508;18.118;2023-09-30T13:28:24;220.63;;;87.47;;
23310;SDS011;11828;51.508;18.118;2023-09-30T13:30:53;219.70;;;87.88;;
23310;SDS011;11828;51.508;18.118;2023-09-30T13:33:19;225.85;;;86.97;;
23310;SDS011;11828;51.508;18.118;2023-09-30T13:35:48;219.13;;;86.60;;
23310;SDS011;11828;51.508;18.118;2023-09-30T13:38:14;223.80;;;87.47;;
23310;SDS011;11828;51.508;18.118;2023-09-30T13:40:41;222.00;;;87.85;;
23310;SDS011;11828;51.508;18.118;2023-09-30T13:43:07;249.68;;;91.07;;
23310;SDS011;11828;51.508;18.118;2023-09-30T13:45:33;191.45;;;86.53;;
23310;SDS011;11828;51.508;18.118;2023-09-30T13:48:00;215.70;;;87.47;;
23310;SDS011;11828;51.508;18.118;2023-09-30T13:50:26;212.77;;;87.68;;
23310;SDS011;11828;51.508;18.118;2023-09-30T13:52:52;220.10;;;87.82;;
23310;SDS011;11828;51.508;18.118;2023-09-30T13:55:18;215.43;;;85.55;;
23310;SDS011;11828;51.508;18.118;2023-09-30T13:57:47;223.80;;;87.55;;
23310;SDS011;11828;51.508;18.118;2023-09-30T14:00:14;213.75;;;85.00;;
23310;SDS011;11828;51.508;18.118;2023-09-30T14:02:41;217.35;;;86.20;;
23310;SDS011;11828;51.508;18.118;2023-09-30T14:05:09;214.70;;;87.53;;
23310;SDS011;11828;51.508;18.118;2023-09-30T14:07:36;209.48;;;86.38;;
23310;SDS011;11828;51.508;18.118;2023-09-30T14:10:05;211.80;;;86.20;;
23310;SDS011;11828;51.508;18.118;2023-09-30T14:12:35;214.07;;;85.65;;
23310;SDS011;11828;51.508;18.118;2023-09-30T14:15:03;199.48;;;85.93;;
23310;SDS011;11828;51.508;18.118;2023-09-30T14:17:31;215.75;;;87.03;;
23310;SDS011;11828;51.508;18.118;2023-09-30T14:19:57;225.85;;;87.57;;
23310;SDS011;11828;51.508;18.118;2023-09-30T14:22:24;225.35;;;87.30;;
23310;SDS011;11828;51.508;18.118;2023-09-30T14:24:51;219.82;;;85.88;;
23310;SDS011;11828;51.508;18.118;2023-09-30T14:27:17;226.55;;;87.20;;
23310;SDS011;11828;51.508;18.118;2023-09-30T14:29:45;231.45;;;87.15;;
23310;SDS011;11828;51.508;18.118;2023-09-30T14:32:11;231.80;;;87.40;;
23310;SDS011;11828;51.508;18.118;2023-09-30T14:34:38;225.32;;;86.65;;
23310;SDS011;11828;51.508;18.118;2023-09-30T14:37:04;225.27;;;86.65;;